Time;durP1;ratioP1;P1;durP2;ratioP2;P2;SDS_P1;SDS_P2;PMS_P1;PMS_P2;Temp;Humidity;BMP_temperature;BMP_pressure;BME280_temperature;BME280_humidity;BME280_pressure;Samples;Min_cycle;Max_cycle;Signal;HPM_P1;HPM_P2
2023/10/07 00:02:19;;;;;;;17.38;9.25;;;;;;;;;;10307862;28;20057;-69
2023/10/07 00:07:15;;;;;;;16.60;8.82;;;;;;;;;;10299410;28;20072;-69
2023/10/07 00:12:16;;;;;;;16.70;8.98;;;;;;;;;;10297410;28;20114;-69
2023/10/07 00:17:18;;;;;;;19.52;8.70;;;;;;;;;;10299531;28;20048;-69
2023/10/07 00:22:18;;;;;;;15.88;8.60;;;;;;;;;;10303805;28;20114;-69
2023/10/07 00:27:26;;;;;;;13.93;7.93;;;;;;;;;;10298997;28;20442;-69
2023/10/07 00:32:26;;;;;;;14.82;8.15;;;;;;;;;;10308714;28;20056;-69
2023/10/07 00:37:24;;;;;;;16.08;8.55;;;;;;;;;;10286055;28;20121;-69
2023/10/07 00:42:22;;;;;;;15.70;9.23;;;;;;;;;;10301801;28;20132;-69
2023/10/07 00:47:19;;;;;;;12.77;8.48;;;;;;;;;;10291681;28;20045;-69
2023/10/07 00:53:05;;;;;;;12.77;8.63;;;;;;;;;;10302645;28;20561;-69
2023/10/07 00:57:37;;;;;;;16.75;9.05;;;;;;;;;;10295881;28;20573;-69
2023/10/07 01:02:34;;;;;;;12.90;9.05;;;;;;;;;;10312722;28;20053;-69
2023/10/07 01:07:31;;;;;;;17.88;8.50;;;;;;;;;;10296649;28;20057;-69
2023/10/07 01:12:35;;;;;;;13.82;8.30;;;;;;;;;;10309198;28;20055;-69
2023/10/07 01:17:32;;;;;;;18.73;9.00;;;;;;;;;;10292804;28;20508;-69
2023/10/07 01:22:35;;;;;;;15.70;8.80;;;;;;;;;;10290351;28;20609;-69
2023/10/07 01:27:41;;;;;;;15.68;8.68;;;;;;;;;;10279043;28;20083;-69
2023/10/07 01:32:48;;;;;;;11.57;7.63;;;;;;;;;;10297505;28;20052;-69
2023/10/07 01:37:52;;;;;;;15.65;7.88;;;;;;;;;;10301273;28;20128;-69
2023/10/07 01:42:48;;;;;;;9.60;6.78;;;;;;;;;;10299039;28;20129;-69
2023/10/07 01:47:45;;;;;;;10.43;6.57;;;;;;;;;;10308882;28;20079;-69
2023/10/07 01:52:46;;;;;;;7.75;6.95;;;;;;;;;;10298252;28;20121;-69
2023/10/07 01:57:44;;;;;;;10.25;6.40;;;;;;;;;;10302083;28;20049;-69
2023/10/07 02:02:49;;;;;;;10.23;6.05;;;;;;;;;;10298901;28;20052;-69
2023/10/07 02:07:48;;;;;;;6.25;5.65;;;;;;;;;;10300624;28;20056;-69
2023/10/07 02:12:46;;;;;;;11.38;6.00;;;;;;;;;;10299396;28;20068;-69
2023/10/07 02:17:47;;;;;;;9.35;6.95;;;;;;;;;;10304409;28;20051;-68
2023/10/07 02:22:44;;;;;;;12.65;7.15;;;;;;;;;;10299030;28;20060;-68
2023/10/07 02:27:42;;;;;;;9.98;6.88;;;;;;;;;;10300857;28;20065;-69
2023/10/07 02:32:40;;;;;;;8.85;7.65;;;;;;;;;;10297100;28;20049;-69
2023/10/07 02:37:38;;;;;;;9.23;8.25;;;;;;;;;;10293788;28;20091;-69
2023/10/07 02:42:35;;;;;;;10.48;7.22;;;;;;;;;;10296438;28;20072;-68
2023/10/07 02:47:32;;;;;;;9.98;7.05;;;;;;;;;;10281472;28;20611;-68
2023/10/07 02:52:36;;;;;;;9.63;6.95;;;;;;;;;;10302735;28;20091;-69
2023/10/07 02:57:39;;;;;;;8.35;5.63;;;;;;;;;;10293800;28;20062;-68
2023/10/07 03:02:48;;;;;;;7.20;5.68;;;;;;;;;;10302024;28;20076;-69
2023/10/07 03:07:49;;;;;;;5.15;4.10;;;;;;;;;;10291645;28;20135;-69
2023/10/07 03:12:56;;;;;;;4.35;3.50;;;;;;;;;;10296579;28;20469;-68
2023/10/07 03:17:54;;;;;;;3.58;3.10;;;;;;;;;;10297226;28;20044;-68
2023/10/07 03:28:16;;;;;;;4.35;3.95;;;;;;;;;;10296960;28;20095;-68
2023/10/07 03:33:15;;;;;;;5.72;3.97;;;;;;;;;;10296259;28;20504;-69
2023/10/07 03:38:12;;;;;;;4.88;3.70;;;;;;;;;;10303265;28;20049;-68
2023/10/07 03:43:08;;;;;;;5.53;4.38;;;;;;;;;;10306942;28;20099;-68
2023/10/07 03:48:22;;;;;;;4.20;3.80;;;;;;;;;;10294627;28;20131;-69
2023/10/07 03:53:19;;;;;;;5.28;4.00;;;;;;;;;;10295599;28;20052;-68
2023/10/07 03:58:20;;;;;;;4.93;4.00;;;;;;;;;;10296999;28;20468;-69
2023/10/07 04:03:16;;;;;;;5.68;4.30;;;;;;;;;;10296737;28;20524;-69
2023/10/07 04:08:13;;;;;;;6.43;5.05;;;;;;;;;;10285961;28;20135;-69
2023/10/07 04:13:11;;;;;;;6.82;4.82;;;;;;;;;;10289899;28;20072;-68
2023/10/07 04:18:09;;;;;;;5.28;4.78;;;;;;;;;;10292965;28;20102;-68
2023/10/07 04:23:06;;;;;;;10.55;6.03;;;;;;;;;;10293217;28;20053;-68
2023/10/07 04:28:06;;;;;;;10.70;6.13;;;;;;;;;;10293504;28;20094;-68
2023/10/07 04:33:03;;;;;;;10.25;6.32;;;;;;;;;;10301620;28;20094;-69
2023/10/07 04:38:09;;;;;;;10.88;6.93;;;;;;;;;;10300092;28;20607;-68
2023/10/07 04:48:23;;;;;;;12.95;6.93;;;;;;;;;;10311223;28;20087;-68
2023/10/07 04:53:25;;;;;;;11.80;6.95;;;;;;;;;;10299468;28;20037;-69
2023/10/07 04:58:24;;;;;;;;;;;;;;;;;;10309817;28;20052;-69
2023/10/07 05:03:21;;;;;;;13.38;6.68;;;;;;;;;;10305777;28;20295;-69
2023/10/07 05:08:17;;;;;;;9.70;6.30;;;;;;;;;;10303160;28;20059;-69
2023/10/07 05:13:14;;;;;;;7.25;6.10;;;;;;;;;;10300877;28;20090;-69
2023/10/07 05:18:16;;;;;;;14.13;7.18;;;;;;;;;;10292133;28;20536;-68
2023/10/07 05:23:14;;;;;;;9.30;6.10;;;;;;;;;;10306035;28;20048;-70
2023/10/07 05:28:11;;;;;;;10.70;6.53;;;;;;;;;;10279919;28;20103;-69
2023/10/07 05:33:08;;;;;;;8.50;6.03;;;;;;;;;;10297808;28;20056;-69
2023/10/07 05:38:09;;;;;;;13.73;6.82;;;;;;;;;;10290863;28;20055;-69
2023/10/07 05:43:07;;;;;;;13.45;7.38;;;;;;;;;;10298368;28;20527;-68
2023/10/07 05:48:04;;;;;;;13.45;7.57;;;;;;;;;;10298920;28;20048;-69
2023/10/07 05:53:05;;;;;;;13.95;7.20;;;;;;;;;;10293426;28;20055;-70
2023/10/07 05:58:02;;;;;;;11.27;6.80;;;;;;;;;;10296703;28;20048;-69
2023/10/07 06:03:05;;;;;;;10.75;6.40;;;;;;;;;;10297902;28;20090;-69
2023/10/07 06:08:04;;;;;;;13.85;7.53;;;;;;;;;;10312465;28;20052;-69
2023/10/07 06:13:08;;;;;;;8.48;6.80;;;;;;;;;;10294728;28;20505;-70
2023/10/07 06:18:04;;;;;;;11.90;7.40;;;;;;;;;;10288305;28;20053;-69
2023/10/07 06:23:12;;;;;;;14.07;7.25;;;;;;;;;;10296941;28;20526;-69
2023/10/07 06:28:10;;;;;;;8.23;6.68;;;;;;;;;;10303286;28;20570;-69
2023/10/07 06:33:06;;;;;;;14.48;7.72;;;;;;;;;;10295288;28;20076;-69
2023/10/07 06:38:03;;;;;;;12.32;7.70;;;;;;;;;;10297953;28;20517;-70
2023/10/07 06:43:01;;;;;;;10.40;7.70;;;;;;;;;;10296361;28;20131;-72
2023/10/07 06:47:59;;;;;;;9.18;7.47;;;;;;;;;;10302473;28;20308;-71
2023/10/07 06:52:55;;;;;;;8.60;7.30;;;;;;;;;;10289990;28;20041;-72
2023/10/07 06:57:56;;;;;;;8.02;7.32;;;;;;;;;;10284656;28;20357;-71
2023/10/07 07:02:59;;;;;;;13.30;8.18;;;;;;;;;;10293445;28;20068;-71
2023/10/07 07:07:57;;;;;;;11.40;7.93;;;;;;;;;;10302746;28;20416;-69
2023/10/07 07:13:05;;;;;;;10.68;7.10;;;;;;;;;;10300774;28;20695;-72
2023/10/07 07:23:11;;;;;;;11.23;6.93;;;;;;;;;;10299982;28;20114;-72
2023/10/07 07:28:09;;;;;;;12.80;7.20;;;;;;;;;;10304463;28;20044;-70
2023/10/07 07:33:07;;;;;;;7.93;6.75;;;;;;;;;;10297127;28;20059;-71
2023/10/07 07:38:11;;;;;;;9.00;7.20;;;;;;;;;;10296558;28;20048;-71
2023/10/07 07:43:07;;;;;;;10.23;6.80;;;;;;;;;;10290434;28;20056;-70
2023/10/07 07:48:07;;;;;;;14.02;6.97;;;;;;;;;;10292621;28;20106;-71
2023/10/07 07:53:07;;;;;;;8.70;6.60;;;;;;;;;;10297275;28;20071;-71
2023/10/07 07:58:04;;;;;;;12.30;6.45;;;;;;;;;;10294595;28;20060;-71
2023/10/07 08:03:03;;;;;;;7.88;5.82;;;;;;;;;;10299153;28;20475;-71
2023/10/07 08:08:09;;;;;;;8.48;5.78;;;;;;;;;;10284369;28;20485;-70
2023/10/07 08:13:06;;;;;;;6.20;5.70;;;;;;;;;;10298837;28;20040;-71
2023/10/07 08:18:06;;;;;;;6.30;5.80;;;;;;;;;;10295486;28;20060;-70
2023/10/07 08:23:07;;;;;;;7.60;6.30;;;;;;;;;;10304521;28;20139;-71
2023/10/07 08:28:22;;;;;;;6.60;5.80;;;;;;;;;;10307704;28;20053;-70
2023/10/07 08:33:23;;;;;;;7.30;6.28;;;;;;;;;;10301741;28;20582;-71
2023/10/07 08:38:29;;;;;;;6.80;6.22;;;;;;;;;;10292014;28;20041;-70
2023/10/07 08:43:32;;;;;;;6.57;5.88;;;;;;;;;;10301284;28;20412;-70
2023/10/07 08:48:30;;;;;;;6.70;6.10;;;;;;;;;;10302475;28;20036;-70
2023/10/07 08:53:28;;;;;;;6.43;5.93;;;;;;;;;;10300730;28;20088;-71
2023/10/07 08:58:28;;;;;;;6.10;5.60;;;;;;;;;;10303156;28;20051;-71
2023/10/07 09:03:28;;;;;;;6.78;6.18;;;;;;;;;;10301586;28;20504;-71
2023/10/07 09:08:33;;;;;;;7.00;6.50;;;;;;;;;;10308303;28;20090;-71
2023/10/07 09:13:31;;;;;;;7.68;6.60;;;;;;;;;;10292833;28;20103;-70
2023/10/07 09:18:39;;;;;;;6.82;6.32;;;;;;;;;;10291482;28;20045;-70
2023/10/07 09:23:47;;;;;;;8.82;7.00;;;;;;;;;;10300301;28;20132;-70
2023/10/07 09:28:47;;;;;;;7.25;6.60;;;;;;;;;;10300064;28;20085;-71
2023/10/07 09:33:45;;;;;;;7.60;7.00;;;;;;;;;;10307040;28;20479;-70
2023/10/07 09:38:42;;;;;;;7.63;6.97;;;;;;;;;;10298178;28;20044;-70
2023/10/07 09:43:43;;;;;;;7.40;6.80;;;;;;;;;;10304594;28;20045;-71
2023/10/07 09:48:43;;;;;;;7.93;6.85;;;;;;;;;;10296577;28;20053;-70
2023/10/07 09:54:02;;;;;;;7.82;6.82;;;;;;;;;;10310968;28;20052;-71
2023/10/07 09:59:02;;;;;;;7.22;6.68;;;;;;;;;;10303497;28;20484;-71
2023/10/07 10:04:18;;;;;;;7.85;7.15;;;;;;;;;;10293053;28;20055;-71
2023/10/07 10:09:23;;;;;;;8.10;7.45;;;;;;;;;;10294185;28;20124;-71
2023/10/07 10:14:30;;;;;;;7.30;6.80;;;;;;;;;;10293754;28;20048;-71
2023/10/07 10:19:28;;;;;;;8.50;7.70;;;;;;;;;;10291557;28;20252;-70
2023/10/07 10:24:28;;;;;;;9.02;7.70;;;;;;;;;;10305852;28;20072;-70
2023/10/07 10:29:31;;;;;;;8.43;7.72;;;;;;;;;;10298201;28;20048;-71
2023/10/07 10:34:27;;;;;;;7.45;6.85;;;;;;;;;;10297645;28;20508;-70
2023/10/07 10:39:25;;;;;;;7.93;7.25;;;;;;;;;;10292673;28;20114;-71
2023/10/07 10:44:25;;;;;;;8.48;7.78;;;;;;;;;;10298295;28;20497;-71
2023/10/07 10:49:22;;;;;;;8.25;7.65;;;;;;;;;;10296326;28;20044;-71
2023/10/07 10:54:19;;;;;;;8.57;7.60;;;;;;;;;;10287938;28;20068;-71
2023/10/07 10:59:17;;;;;;;8.07;7.40;;;;;;;;;;10282868;28;20040;-71
2023/10/07 11:04:15;;;;;;;8.57;7.97;;;;;;;;;;10294858;28;20127;-70
2023/10/07 11:09:17;;;;;;;7.93;7.43;;;;;;;;;;10303951;28;20045;-70
2023/10/07 11:14:20;;;;;;;7.72;7.22;;;;;;;;;;10276489;28;20056;-70
2023/10/07 11:19:18;;;;;;;8.18;7.57;;;;;;;;;;10302243;28;20041;-71
2023/10/07 11:24:24;;;;;;;8.30;7.70;;;;;;;;;;10290507;28;20048;-71
2023/10/07 11:29:21;;;;;;;8.43;7.82;;;;;;;;;;10305445;28;20060;-71
2023/10/07 11:34:19;;;;;;;7.78;7.28;;;;;;;;;;10290055;28;20076;-71
2023/10/07 11:39:16;;;;;;;8.80;8.20;;;;;;;;;;10298475;28;20070;-70
2023/10/07 11:44:16;;;;;;;8.40;7.70;;;;;;;;;;10294074;28;20053;-71
2023/10/07 11:49:15;;;;;;;8.35;7.75;;;;;;;;;;10295062;28;20044;-71
2023/10/07 11:54:12;;;;;;;8.07;7.45;;;;;;;;;;10296116;28;20037;-71
2023/10/07 11:59:09;;;;;;;7.78;7.28;;;;;;;;;;10316354;28;20492;-71
2023/10/07 12:04:08;;;;;;;8.45;7.85;;;;;;;;;;10296003;28;20044;-71
2023/10/07 12:09:07;;;;;;;8.98;8.25;;;;;;;;;;10300635;28;20052;-71
2023/10/07 12:14:03;;;;;;;7.68;7.00;;;;;;;;;;10313593;28;20063;-71
2023/10/07 12:19:00;;;;;;;7.05;6.55;;;;;;;;;;10301978;28;20091;-71
2023/10/07 12:24:12;;;;;;;7.43;6.93;;;;;;;;;;10306541;28;20074;-71
2023/10/07 12:29:09;;;;;;;7.03;6.53;;;;;;;;;;10312516;28;20051;-71
2023/10/07 12:34:05;;;;;;;7.80;7.20;;;;;;;;;;10300305;28;20119;-71
2023/10/07 12:39:01;;;;;;;7.60;7.00;;;;;;;;;;10303353;28;20055;-71
2023/10/07 12:43:59;;;;;;;7.43;6.82;;;;;;;;;;10298740;28;20052;-71
2023/10/07 12:48:55;;;;;;;7.53;6.93;;;;;;;;;;10296182;28;20052;-71
2023/10/07 12:53:56;;;;;;;7.78;7.18;;;;;;;;;;10300059;28;20049;-70
2023/10/07 12:58:53;;;;;;;8.00;7.50;;;;;;;;;;10299812;28;20053;-71
2023/10/07 13:03:52;;;;;;;8.88;8.27;;;;;;;;;;10303887;28;20519;-72
2023/10/07 13:08:49;;;;;;;7.70;7.13;;;;;;;;;;10298330;28;20084;-71
2023/10/07 13:13:45;;;;;;;7.63;7.13;;;;;;;;;;10306729;28;20546;-71
2023/10/07 13:18:43;;;;;;;7.25;6.75;;;;;;;;;;10306784;28;20049;-71
2023/10/07 13:23:40;;;;;;;7.13;6.68;;;;;;;;;;10307818;28;20419;-71
2023/10/07 13:28:39;;;;;;;7.20;6.70;;;;;;;;;;10308147;28;20060;-71
2023/10/07 13:33:36;;;;;;;8.35;7.75;;;;;;;;;;10308934;28;20061;-71
2023/10/07 13:38:33;;;;;;;7.80;7.20;;;;;;;;;;10307008;28;20056;-71
2023/10/07 13:43:33;;;;;;;7.93;7.35;;;;;;;;;;10302027;28;20129;-71
2023/10/07 13:48:30;;;;;;;7.75;7.15;;;;;;;;;;10302727;28;20075;-71
2023/10/07 13:58:42;;;;;;;8.02;7.53;;;;;;;;;;10303859;28;20053;-72
2023/10/07 14:03:39;;;;;;;8.27;7.68;;;;;;;;;;10297750;28;20091;-72
2023/10/07 14:08:37;;;;;;;10.95;9.85;;;;;;;;;;10302690;28;20052;-72
2023/10/07 14:13:33;;;;;;;9.10;8.40;;;;;;;;;;10290855;28;20045;-72
2023/10/07 14:18:30;;;;;;;9.25;8.45;;;;;;;;;;10303117;28;20102;-71
2023/10/07 14:23:27;;;;;;;9.25;8.55;;;;;;;;;;10302531;28;20076;-71
2023/10/07 14:28:24;;;;;;;8.40;7.80;;;;;;;;;;10303248;28;20543;-71
2023/10/07 14:33:22;;;;;;;9.15;8.55;;;;;;;;;;10303582;28;20515;-72
2023/10/07 14:38:20;;;;;;;8.73;8.20;;;;;;;;;;10288629;28;20052;-72
2023/10/07 14:43:17;;;;;;;8.95;8.27;;;;;;;;;;10304937;28;20056;-71
2023/10/07 14:48:13;;;;;;;8.55;7.95;;;;;;;;;;10291343;28;20056;-71
2023/10/07 14:53:12;;;;;;;10.38;9.52;;;;;;;;;;10303247;28;20056;-72
2023/10/07 14:58:08;;;;;;;8.05;7.55;;;;;;;;;;10299201;28;20047;-71
2023/10/07 15:03:05;;;;;;;8.70;8.20;;;;;;;;;;10304021;28;20050;-72
2023/10/07 15:08:02;;;;;;;9.23;8.45;;;;;;;;;;10297409;28;20045;-72
2023/10/07 15:12:59;;;;;;;9.45;8.75;;;;;;;;;;10290286;28;20493;-72
2023/10/07 15:17:56;;;;;;;9.40;8.80;;;;;;;;;;10309632;28;20052;-71
2023/10/07 15:22:55;;;;;;;9.13;8.40;;;;;;;;;;10297991;28;20048;-72
2023/10/07 15:27:52;;;;;;;9.10;8.40;;;;;;;;;;10294637;28;20709;-71
2023/10/07 15:32:49;;;;;;;9.40;8.57;;;;;;;;;;10303916;28;20056;-71
2023/10/07 15:37:45;;;;;;;9.60;8.88;;;;;;;;;;10303215;28;20076;-71
2023/10/07 15:42:42;;;;;;;10.95;10.05;;;;;;;;;;10289431;28;20225;-72
2023/10/07 15:47:38;;;;;;;10.27;9.43;;;;;;;;;;10296461;28;20057;-71
2023/10/07 15:52:35;;;;;;;10.05;9.30;;;;;;;;;;10304376;28;20068;-72
2023/10/07 15:57:32;;;;;;;9.63;8.93;;;;;;;;;;10297282;28;20504;-72
2023/10/07 16:02:29;;;;;;;9.35;8.43;;;;;;;;;;10303930;28;20049;-72
2023/10/07 16:07:26;;;;;;;10.32;8.38;;;;;;;;;;10298703;28;20047;-72
2023/10/07 16:12:26;;;;;;;9.60;8.80;;;;;;;;;;10299787;28;20041;-72
2023/10/07 16:17:25;;;;;;;10.18;9.27;;;;;;;;;;10297379;28;20086;-71
2023/10/07 16:22:22;;;;;;;9.38;8.68;;;;;;;;;;10297064;28;20041;-71
2023/10/07 16:27:18;;;;;;;9.40;8.70;;;;;;;;;;10300197;28;20051;-71
2023/10/07 16:32:14;;;;;;;9.25;8.45;;;;;;;;;;10287525;28;20037;-71
2023/10/07 16:37:14;;;;;;;9.52;8.82;;;;;;;;;;10295461;28;20131;-72
2023/10/07 16:42:10;;;;;;;9.50;8.65;;;;;;;;;;10313350;28;20052;-71
2023/10/07 16:47:07;;;;;;;8.73;8.10;;;;;;;;;;10308964;28;20053;-71
2023/10/07 16:52:06;;;;;;;9.68;8.98;;;;;;;;;;10308977;28;20091;-72
2023/10/07 16:57:03;;;;;;;9.40;8.73;;;;;;;;;;10307308;28;20095;-70
2023/10/07 17:02:00;;;;;;;9.55;8.73;;;;;;;;;;10312865;28;20083;-71
2023/10/07 17:06:57;;;;;;;9.00;8.30;;;;;;;;;;10306096;28;20041;-71
2023/10/07 17:11:53;;;;;;;9.50;8.70;;;;;;;;;;10297207;28;20052;-72
2023/10/07 17:16:49;;;;;;;10.25;9.23;;;;;;;;;;10306600;28;20049;-71
2023/10/07 17:21:48;;;;;;;9.48;8.68;;;;;;;;;;10310767;28;20110;-72
2023/10/07 17:26:45;;;;;;;9.23;8.45;;;;;;;;;;10312207;28;20044;-71
2023/10/07 17:31:42;;;;;;;8.98;8.38;;;;;;;;;;10284442;28;20055;-71
2023/10/07 17:36:39;;;;;;;9.20;8.60;;;;;;;;;;10305213;28;20056;-72
2023/10/07 17:41:35;;;;;;;9.30;8.70;;;;;;;;;;10297581;28;20047;-71
2023/10/07 17:46:34;;;;;;;9.18;8.57;;;;;;;;;;10306657;28;20048;-71
2023/10/07 17:51:30;;;;;;;8.90;8.20;;;;;;;;;;10296587;28;20056;-71
2023/10/07 17:56:26;;;;;;;9.68;8.90;;;;;;;;;;10301173;28;20048;-72
2023/10/07 18:01:23;;;;;;;9.27;8.68;;;;;;;;;;10302901;28;20468;-71
2023/10/07 18:06:20;;;;;;;9.13;8.48;;;;;;;;;;10303705;28;20152;-71
2023/10/07 18:11:17;;;;;;;8.70;8.07;;;;;;;;;;10299227;28;20048;-72
2023/10/07 18:16:13;;;;;;;9.68;9.07;;;;;;;;;;10290526;28;20049;-72
2023/10/07 18:21:10;;;;;;;10.07;9.38;;;;;;;;;;10302633;28;20098;-71
2023/10/07 18:26:06;;;;;;;9.25;8.65;;;;;;;;;;10300330;28;20069;-71
2023/10/07 18:31:03;;;;;;;9.52;8.65;;;;;;;;;;10301259;28;20060;-71
2023/10/07 18:35:59;;;;;;;10.25;9.23;;;;;;;;;;10293164;28;20473;-71
2023/10/07 18:40:55;;;;;;;9.88;8.88;;;;;;;;;;10297687;28;20508;-71
2023/10/07 18:45:52;;;;;;;9.82;8.90;;;;;;;;;;10285435;28;20543;-71
2023/10/07 18:50:49;;;;;;;10.30;8.70;;;;;;;;;;10291396;28;20658;-71
2023/10/07 18:55:52;;;;;;;13.60;9.85;;;;;;;;;;10302082;28;20539;-71
2023/10/07 19:00:48;;;;;;;8.57;7.78;;;;;;;;;;10295836;28;20122;-71
2023/10/07 19:05:45;;;;;;;11.23;10.15;;;;;;;;;;10297941;28;20508;-71
2023/10/07 19:10:41;;;;;;;16.33;10.95;;;;;;;;;;10295454;28;20048;-71
2023/10/07 19:15:42;;;;;;;14.57;9.93;;;;;;;;;;10299033;28;20060;-72
2023/10/07 19:20:48;;;;;;;11.05;9.98;;;;;;;;;;10292664;28;20084;-71
2023/10/07 19:26:17;;;;;;;13.95;10.38;;;;;;;;;;10303310;28;20424;-71
2023/10/07 19:31:15;;;;;;;12.05;10.70;;;;;;;;;;10284532;28;20049;-71
2023/10/07 19:36:12;;;;;;;11.48;10.25;;;;;;;;;;10297682;28;20066;-72
2023/10/07 19:41:08;;;;;;;12.55;10.95;;;;;;;;;;10300981;28;20071;-71
2023/10/07 19:46:07;;;;;;;15.05;10.23;;;;;;;;;;10298558;28;20048;-70
2023/10/07 19:51:03;;;;;;;11.00;9.98;;;;;;;;;;10304662;28;20052;-71
2023/10/07 19:56:00;;;;;;;11.05;10.00;;;;;;;;;;10293688;28;20079;-72
2023/10/07 20:01:05;;;;;;;11.23;10.05;;;;;;;;;;10301980;28;20054;-70
2023/10/07 20:06:13;;;;;;;13.95;12.55;;;;;;;;;;10284663;28;20059;-70
2023/10/07 20:11:09;;;;;;;11.20;9.93;;;;;;;;;;10296006;28;20063;-72
2023/10/07 20:16:06;;;;;;;14.60;12.02;;;;;;;;;;10300114;28;20504;-71
2023/10/07 20:21:03;;;;;;;11.32;10.23;;;;;;;;;;10311845;28;20044;-70
2023/10/07 20:26:00;;;;;;;10.95;9.85;;;;;;;;;;10311886;28;20137;-70
2023/10/07 20:30:57;;;;;;;10.80;9.85;;;;;;;;;;10299456;28;20048;-71
2023/10/07 20:35:53;;;;;;;10.77;9.15;;;;;;;;;;10283378;28;20045;-72
2023/10/07 20:40:54;;;;;;;9.82;8.93;;;;;;;;;;10316764;28;20583;-70
2023/10/07 20:45:57;;;;;;;9.98;9.07;;;;;;;;;;10301503;28;20524;-70
2023/10/07 20:50:59;;;;;;;9.80;8.80;;;;;;;;;;10300534;28;20048;-72
2023/10/07 20:55:55;;;;;;;10.77;9.75;;;;;;;;;;10293072;28;20131;-71
2023/10/07 21:00:52;;;;;;;11.10;9.50;;;;;;;;;;10301026;28;20049;-72
2023/10/07 21:05:49;;;;;;;10.18;9.27;;;;;;;;;;10298846;28;20140;-71
2023/10/07 21:10:45;;;;;;;12.75;10.38;;;;;;;;;;10305360;28;20665;-72
2023/10/07 21:15:42;;;;;;;11.27;10.07;;;;;;;;;;10289936;28;20051;-71
2023/10/07 21:20:39;;;;;;;10.00;8.85;;;;;;;;;;10295201;28;20057;-71
2023/10/07 21:25:42;;;;;;;12.20;8.77;;;;;;;;;;10305334;28;20106;-71
2023/10/07 21:30:39;;;;;;;10.88;9.25;;;;;;;;;;10303631;28;20102;-72
2023/10/07 21:35:36;;;;;;;13.93;9.50;;;;;;;;;;10291245;28;20055;-72
2023/10/07 21:40:34;;;;;;;15.00;9.63;;;;;;;;;;10295657;28;20118;-71
2023/10/07 21:45:30;;;;;;;16.00;10.13;;;;;;;;;;10292478;28;20045;-71
2023/10/07 21:50:27;;;;;;;11.02;9.38;;;;;;;;;;10299604;28;20059;-73
2023/10/07 21:55:28;;;;;;;10.15;9.15;;;;;;;;;;10309136;28;20079;-70
2023/10/07 22:05:22;;;;;;;11.43;9.68;;;;;;;;;;10307887;28;20056;-70
2023/10/07 22:10:20;;;;;;;17.40;10.05;;;;;;;;;;10279941;28;20063;-71
2023/10/07 22:15:18;;;;;;;13.73;9.65;;;;;;;;;;10291774;28;20420;-68
2023/10/07 22:20:16;;;;;;;13.73;9.80;;;;;;;;;;10281211;28;20680;-70
2023/10/07 22:25:13;;;;;;;11.02;9.75;;;;;;;;;;10305922;28;20590;-68
2023/10/07 22:30:16;;;;;;;12.48;10.45;;;;;;;;;;10279715;28;20106;-68
2023/10/07 22:35:14;;;;;;;12.63;10.20;;;;;;;;;;10290260;28;20523;-69
2023/10/07 22:40:39;;;;;;;12.63;9.57;;;;;;;;;;10301132;28;20124;-69
2023/10/07 22:45:51;;;;;;;12.45;9.50;;;;;;;;;;10290838;28;20532;-69
2023/10/07 22:50:48;;;;;;;11.93;9.05;;;;;;;;;;10286178;28;20041;-69
2023/10/07 22:55:49;;;;;;;11.45;9.30;;;;;;;;;;10294297;28;20504;-68
2023/10/07 23:00:50;;;;;;;12.30;8.80;;;;;;;;;;10308828;28;20102;-69
2023/10/07 23:05:47;;;;;;;11.60;8.43;;;;;;;;;;10305737;28;20063;-68
2023/10/07 23:10:48;;;;;;;11.17;9.00;;;;;;;;;;10292464;28;20420;-70
2023/10/07 23:15:44;;;;;;;12.55;8.88;;;;;;;;;;10291165;28;20052;-69
2023/10/07 23:20:46;;;;;;;12.32;9.02;;;;;;;;;;10302230;28;20617;-69
2023/10/07 23:25:57;;;;;;;16.83;9.07;;;;;;;;;;10311174;28;20052;-69
2023/10/07 23:36:07;;;;;;;11.50;9.00;;;;;;;;;;10300993;28;20132;-69
2023/10/07 23:41:07;;;;;;;13.10;9.20;;;;;;;;;;10298904;28;20135;-70
2023/10/07 23:46:04;;;;;;;11.85;9.95;;;;;;;;;;10297441;28;20052;-68
2023/10/07 23:51:08;;;;;;;16.58;10.52;;;;;;;;;;10304501;28;20741;-68
2023/10/07 23:56:05;;;;;;;11.57;10.02;;;;;;;;;;10302537;28;20118;-68
